Riverside/March AFB, California
Current Conditions -  °F | °C
As of 1:58 PM on Friday 24 Oct 2014 (Local Time) from KRIV Reporting Station
Clear Clear  
Wind Chill: 91°   Ceiling: Unl
Heat Index: 91°   Visibility: 10mi
Dew Point: 40°   Wind: 10mph
Humidity: 16%   Direction: 300°WNW
Pressure: 29.96"   Gusts: NA
Location:  33.9°N, 117.25°W
Report Text: KRIV 242058Z AUTO 30009KT 10SM CLR 33/04 A2996 RMK AO2 SLP133 T03300042 57026
Loading
Personal Weather Stations






























Interactive Weather Map
Tropical Storm Tracking
New forecast layout! Learn more

10-Day Weather Forecast

Advertisements
Track Severe Weather on mobile